sensor_id;sensor_type;location;lat;lon;timestamp;P1;durP1;ratioP1;P2;durP2;ratioP2
42098;SDS011;27758;55.900;8.516;2022-09-27T00:01:15;15.63;;;4.13;;
42098;SDS011;27758;55.900;8.516;2022-09-27T00:03:42;17.17;;;4.55;;
42098;SDS011;27758;55.900;8.516;2022-09-27T00:06:14;14.95;;;4.00;;
42098;SDS011;27758;55.900;8.516;2022-09-27T00:08:46;18.08;;;4.78;;
42098;SDS011;27758;55.900;8.516;2022-09-27T00:14:12;20.63;;;3.72;;
42098;SDS011;27758;55.900;8.516;2022-09-27T00:16:39;19.95;;;4.95;;
42098;SDS011;27758;55.900;8.516;2022-09-27T00:19:13;23.67;;;5.03;;
42098;SDS011;27758;55.900;8.516;2022-09-27T00:21:41;18.10;;;3.53;;
42098;SDS011;27758;55.900;8.516;2022-09-27T00:24:12;19.20;;;5.32;;
42098;SDS011;27758;55.900;8.516;2022-09-27T00:26:39;15.27;;;4.40;;
42098;SDS011;27758;55.900;8.516;2022-09-27T00:29:05;18.40;;;4.40;;
42098;SDS011;27758;55.900;8.516;2022-09-27T00:31:31;19.08;;;3.72;;
42098;SDS011;27758;55.900;8.516;2022-09-27T00:33:58;14.77;;;3.55;;
42098;SDS011;27758;55.900;8.516;2022-09-27T00:36:25;12.48;;;3.05;;
42098;SDS011;27758;55.900;8.516;2022-09-27T00:38:52;11.50;;;3.28;;
42098;SDS011;27758;55.900;8.516;2022-09-27T00:41:22;14.07;;;3.25;;
42098;SDS011;27758;55.900;8.516;2022-09-27T00:43:53;10.45;;;3.03;;
42098;SDS011;27758;55.900;8.516;2022-09-27T00:46:25;11.17;;;3.50;;
42098;SDS011;27758;55.900;8.516;2022-09-27T00:49:01;11.60;;;3.40;;
42098;SDS011;27758;55.900;8.516;2022-09-27T00:51:41;16.08;;;3.05;;
42098;SDS011;27758;55.900;8.516;2022-09-27T00:54:12;14.40;;;3.80;;
42098;SDS011;27758;55.900;8.516;2022-09-27T00:56:40;11.32;;;4.05;;
42098;SDS011;27758;55.900;8.516;2022-09-27T00:59:09;9.73;;;2.95;;
42098;SDS011;27758;55.900;8.516;2022-09-27T01:01:41;9.95;;;5.03;;
42098;SDS011;27758;55.900;8.516;2022-09-27T01:04:08;9.77;;;3.38;;
42098;SDS011;27758;55.900;8.516;2022-09-27T01:06:36;13.25;;;3.50;;
42098;SDS011;27758;55.900;8.516;2022-09-27T01:09:05;16.67;;;4.45;;
42098;SDS011;27758;55.900;8.516;2022-09-27T01:14:16;17.67;;;4.93;;
42098;SDS011;27758;55.900;8.516;2022-09-27T01:25:08;14.25;;;4.88;;
42098;SDS011;27758;55.900;8.516;2022-09-27T01:28:12;14.27;;;3.80;;
42098;SDS011;27758;55.900;8.516;2022-09-27T01:39:19;11.52;;;4.15;;
42098;SDS011;27758;55.900;8.516;2022-09-27T01:42:04;10.27;;;3.15;;
42098;SDS011;27758;55.900;8.516;2022-09-27T01:45:20;8.88;;;3.83;;
42098;SDS011;27758;55.900;8.516;2022-09-27T01:47:36;10.90;;;3.88;;
42098;SDS011;27758;55.900;8.516;2022-09-27T01:50:08;11.75;;;3.90;;
42098;SDS011;27758;55.900;8.516;2022-09-27T01:52:54;12.20;;;3.15;;
42098;SDS011;27758;55.900;8.516;2022-09-27T01:55:25;9.70;;;3.20;;
42098;SDS011;27758;55.900;8.516;2022-09-27T01:57:57;8.57;;;3.25;;
42098;SDS011;27758;55.900;8.516;2022-09-27T02:00:27;11.30;;;3.10;;
42098;SDS011;27758;55.900;8.516;2022-09-27T02:02:57;15.18;;;3.45;;
42098;SDS011;27758;55.900;8.516;2022-09-27T02:05:34;8.98;;;2.13;;
42098;SDS011;27758;55.900;8.516;2022-09-27T02:08:06;22.33;;;3.22;;
42098;SDS011;27758;55.900;8.516;2022-09-27T02:10:41;41.70;;;4.85;;
42098;SDS011;27758;55.900;8.516;2022-09-27T02:13:15;9.55;;;2.63;;
42098;SDS011;27758;55.900;8.516;2022-09-27T02:22:04;8.02;;;2.78;;
42098;SDS011;27758;55.900;8.516;2022-09-27T02:24:36;24.05;;;3.83;;
42098;SDS011;27758;55.900;8.516;2022-09-27T02:27:20;13.80;;;2.80;;
42098;SDS011;27758;55.900;8.516;2022-09-27T02:30:07;5.03;;;2.13;;
42098;SDS011;27758;55.900;8.516;2022-09-27T02:32:38;5.03;;;1.90;;
42098;SDS011;27758;55.900;8.516;2022-09-27T02:35:08;5.00;;;2.13;;
42098;SDS011;27758;55.900;8.516;2022-09-27T02:37:37;3.92;;;1.85;;
42098;SDS011;27758;55.900;8.516;2022-09-27T02:40:03;5.57;;;2.45;;
42098;SDS011;27758;55.900;8.516;2022-09-27T02:42:29;5.72;;;2.65;;
42098;SDS011;27758;55.900;8.516;2022-09-27T02:44:56;9.80;;;3.08;;
42098;SDS011;27758;55.900;8.516;2022-09-27T03:01:01;6.25;;;2.70;;
42098;SDS011;27758;55.900;8.516;2022-09-27T03:04:09;7.03;;;2.45;;
42098;SDS011;27758;55.900;8.516;2022-09-27T03:06:35;8.88;;;2.47;;
42098;SDS011;27758;55.900;8.516;2022-09-27T03:09:03;6.13;;;2.50;;
42098;SDS011;27758;55.900;8.516;2022-09-27T03:11:29;6.15;;;2.75;;
42098;SDS011;27758;55.900;8.516;2022-09-27T03:13:55;7.32;;;2.67;;
42098;SDS011;27758;55.900;8.516;2022-09-27T03:16:20;7.78;;;2.55;;
42098;SDS011;27758;55.900;8.516;2022-09-27T03:18:46;10.98;;;2.78;;
42098;SDS011;27758;55.900;8.516;2022-09-27T03:21:12;9.75;;;2.65;;
42098;SDS011;27758;55.900;8.516;2022-09-27T03:23:37;7.15;;;2.53;;
42098;SDS011;27758;55.900;8.516;2022-09-27T03:26:03;8.32;;;2.72;;
42098;SDS011;27758;55.900;8.516;2022-09-27T03:28:29;9.25;;;3.00;;
42098;SDS011;27758;55.900;8.516;2022-09-27T03:30:55;7.55;;;2.30;;
42098;SDS011;27758;55.900;8.516;2022-09-27T03:33:20;5.68;;;2.25;;
42098;SDS011;27758;55.900;8.516;2022-09-27T03:35:46;8.77;;;2.55;;
42098;SDS011;27758;55.900;8.516;2022-09-27T03:38:12;6.25;;;2.40;;
42098;SDS011;27758;55.900;8.516;2022-09-27T03:40:38;9.27;;;2.13;;
42098;SDS011;27758;55.900;8.516;2022-09-27T03:43:04;8.60;;;1.90;;
42098;SDS011;27758;55.900;8.516;2022-09-27T03:45:30;5.22;;;1.77;;
42098;SDS011;27758;55.900;8.516;2022-09-27T03:47:55;7.60;;;2.53;;
42098;SDS011;27758;55.900;8.516;2022-09-27T03:50:21;6.88;;;1.80;;
42098;SDS011;27758;55.900;8.516;2022-09-27T03:52:47;4.85;;;1.45;;
42098;SDS011;27758;55.900;8.516;2022-09-27T03:55:13;3.30;;;1.55;;
42098;SDS011;27758;55.900;8.516;2022-09-27T03:57:43;18.50;;;2.63;;
42098;SDS011;27758;55.900;8.516;2022-09-27T04:00:10;15.77;;;1.98;;
42098;SDS011;27758;55.900;8.516;2022-09-27T04:02:36;5.55;;;1.60;;
42098;SDS011;27758;55.900;8.516;2022-09-27T04:05:02;11.50;;;1.38;;
42098;SDS011;27758;55.900;8.516;2022-09-27T04:07:29;6.25;;;1.80;;
42098;SDS011;27758;55.900;8.516;2022-09-27T04:09:55;5.72;;;2.10;;
42098;SDS011;27758;55.900;8.516;2022-09-27T04:12:20;5.53;;;1.52;;
42098;SDS011;27758;55.900;8.516;2022-09-27T04:14:46;10.55;;;1.52;;
42098;SDS011;27758;55.900;8.516;2022-09-27T04:17:12;4.47;;;1.77;;
42098;SDS011;27758;55.900;8.516;2022-09-27T04:19:38;4.78;;;1.80;;
42098;SDS011;27758;55.900;8.516;2022-09-27T04:22:04;7.18;;;2.00;;
42098;SDS011;27758;55.900;8.516;2022-09-27T04:24:29;4.65;;;1.40;;
42098;SDS011;27758;55.900;8.516;2022-09-27T04:26:55;6.63;;;1.75;;
42098;SDS011;27758;55.900;8.516;2022-09-27T04:29:21;7.25;;;2.20;;
42098;SDS011;27758;55.900;8.516;2022-09-27T04:31:47;5.88;;;1.75;;
42098;SDS011;27758;55.900;8.516;2022-09-27T04:34:13;4.60;;;1.77;;
42098;SDS011;27758;55.900;8.516;2022-09-27T04:36:38;3.78;;;1.38;;
42098;SDS011;27758;55.900;8.516;2022-09-27T04:39:07;5.30;;;2.17;;
42098;SDS011;27758;55.900;8.516;2022-09-27T04:41:34;8.52;;;2.53;;
42098;SDS011;27758;55.900;8.516;2022-09-27T04:44:00;7.07;;;2.17;;
42098;SDS011;27758;55.900;8.516;2022-09-27T04:46:27;4.22;;;1.70;;
42098;SDS011;27758;55.900;8.516;2022-09-27T04:48:59;3.90;;;1.70;;
42098;SDS011;27758;55.900;8.516;2022-09-27T04:51:25;2.72;;;1.50;;
42098;SDS011;27758;55.900;8.516;2022-09-27T04:53:51;6.13;;;1.67;;
42098;SDS011;27758;55.900;8.516;2022-09-27T04:56:19;9.50;;;2.30;;
42098;SDS011;27758;55.900;8.516;2022-09-27T04:58:45;5.03;;;1.70;;
42098;SDS011;27758;55.900;8.516;2022-09-27T05:01:10;7.57;;;1.60;;
42098;SDS011;27758;55.900;8.516;2022-09-27T05:03:37;6.50;;;1.77;;
42098;SDS011;27758;55.900;8.516;2022-09-27T05:06:03;6.18;;;1.98;;
42098;SDS011;27758;55.900;8.516;2022-09-27T05:08:29;5.80;;;2.13;;
42098;SDS011;27758;55.900;8.516;2022-09-27T05:10:54;4.53;;;1.48;;
42098;SDS011;27758;55.900;8.516;2022-09-27T05:13:20;2.35;;;1.58;;
42098;SDS011;27758;55.900;8.516;2022-09-27T05:15:46;5.35;;;1.60;;
42098;SDS011;27758;55.900;8.516;2022-09-27T05:18:12;3.72;;;1.48;;
42098;SDS011;27758;55.900;8.516;2022-09-27T05:20:38;4.55;;;1.90;;
42098;SDS011;27758;55.900;8.516;2022-09-27T05:23:04;7.07;;;1.95;;
42098;SDS011;27758;55.900;8.516;2022-09-27T05:25:30;6.63;;;1.80;;
42098;SDS011;27758;55.900;8.516;2022-09-27T05:27:57;10.38;;;3.08;;
42098;SDS011;27758;55.900;8.516;2022-09-27T05:30:23;6.78;;;2.65;;
42098;SDS011;27758;55.900;8.516;2022-09-27T05:32:50;7.20;;;2.63;;
42098;SDS011;27758;55.900;8.516;2022-09-27T05:35:17;9.18;;;2.72;;
42098;SDS011;27758;55.900;8.516;2022-09-27T05:37:49;5.93;;;2.67;;
42098;SDS011;27758;55.900;8.516;2022-09-27T05:40:19;5.78;;;2.20;;
42098;SDS011;27758;55.900;8.516;2022-09-27T05:42:48;6.97;;;2.58;;
42098;SDS011;27758;55.900;8.516;2022-09-27T05:45:15;8.63;;;2.92;;
42098;SDS011;27758;55.900;8.516;2022-09-27T05:47:41;11.98;;;3.40;;
42098;SDS011;27758;55.900;8.516;2022-09-27T05:50:07;9.10;;;2.95;;
42098;SDS011;27758;55.900;8.516;2022-09-27T05:52:34;13.20;;;3.53;;
42098;SDS011;27758;55.900;8.516;2022-09-27T05:54:59;14.25;;;3.67;;
42098;SDS011;27758;55.900;8.516;2022-09-27T05:57:25;10.68;;;3.17;;
42098;SDS011;27758;55.900;8.516;2022-09-27T05:59:51;5.82;;;2.92;;
42098;SDS011;27758;55.900;8.516;2022-09-27T06:02:17;8.25;;;4.45;;
42098;SDS011;27758;55.900;8.516;2022-09-27T06:04:43;15.70;;;4.10;;
42098;SDS011;27758;55.900;8.516;2022-09-27T06:07:08;8.27;;;3.33;;
42098;SDS011;27758;55.900;8.516;2022-09-27T06:09:34;10.70;;;4.35;;
42098;SDS011;27758;55.900;8.516;2022-09-27T06:12:00;11.63;;;3.90;;
42098;SDS011;27758;55.900;8.516;2022-09-27T06:14:26;8.60;;;3.80;;
42098;SDS011;27758;55.900;8.516;2022-09-27T06:16:52;5.75;;;3.03;;
42098;SDS011;27758;55.900;8.516;2022-09-27T06:19:20;7.95;;;3.65;;
42098;SDS011;27758;55.900;8.516;2022-09-27T06:21:48;14.77;;;4.00;;
42098;SDS011;27758;55.900;8.516;2022-09-27T06:24:15;7.20;;;3.47;;
42098;SDS011;27758;55.900;8.516;2022-09-27T06:26:40;7.45;;;2.80;;
42098;SDS011;27758;55.900;8.516;2022-09-27T06:29:07;17.40;;;3.85;;
42098;SDS011;27758;55.900;8.516;2022-09-27T06:31:33;16.45;;;4.03;;
42098;SDS011;27758;55.900;8.516;2022-09-27T06:33:58;15.38;;;3.83;;
42098;SDS011;27758;55.900;8.516;2022-09-27T06:36:24;19.77;;;4.05;;
42098;SDS011;27758;55.900;8.516;2022-09-27T06:38:50;13.52;;;3.45;;
42098;SDS011;27758;55.900;8.516;2022-09-27T06:41:16;9.07;;;3.78;;
42098;SDS011;27758;55.900;8.516;2022-09-27T06:43:41;14.18;;;3.55;;
42098;SDS011;27758;55.900;8.516;2022-09-27T06:46:07;10.15;;;3.08;;
42098;SDS011;27758;55.900;8.516;2022-09-27T06:48:33;9.57;;;3.03;;
42098;SDS011;27758;55.900;8.516;2022-09-27T06:51:01;7.95;;;2.97;;
42098;SDS011;27758;55.900;8.516;2022-09-27T06:53:27;10.43;;;3.08;;
42098;SDS011;27758;55.900;8.516;2022-09-27T06:55:56;7.82;;;3.10;;
42098;SDS011;27758;55.900;8.516;2022-09-27T06:58:24;7.68;;;3.00;;
42098;SDS011;27758;55.900;8.516;2022-09-27T07:01:08;6.80;;;3.22;;
42098;SDS011;27758;55.900;8.516;2022-09-27T07:03:34;5.32;;;2.58;;
42098;SDS011;27758;55.900;8.516;2022-09-27T07:06:04;5.32;;;2.10;;
42098;SDS011;27758;55.900;8.516;2022-09-27T07:08:30;5.65;;;2.60;;
42098;SDS011;27758;55.900;8.516;2022-09-27T07:11:02;6.28;;;2.20;;
42098;SDS011;27758;55.900;8.516;2022-09-27T07:13:30;6.68;;;1.80;;
42098;SDS011;27758;55.900;8.516;2022-09-27T07:16:01;8.20;;;2.35;;
42098;SDS011;27758;55.900;8.516;2022-09-27T07:18:27;7.25;;;1.70;;
42098;SDS011;27758;55.900;8.516;2022-09-27T07:20:53;4.85;;;1.65;;
42098;SDS011;27758;55.900;8.516;2022-09-27T07:23:19;5.50;;;1.90;;
42098;SDS011;27758;55.900;8.516;2022-09-27T07:25:45;3.35;;;1.80;;
42098;SDS011;27758;55.900;8.516;2022-09-27T07:28:13;8.15;;;2.65;;
42098;SDS011;27758;55.900;8.516;2022-09-27T07:30:40;7.07;;;2.00;;
42098;SDS011;27758;55.900;8.516;2022-09-27T07:33:07;4.60;;;2.30;;
42098;SDS011;27758;55.900;8.516;2022-09-27T07:35:33;7.50;;;2.05;;
42098;SDS011;27758;55.900;8.516;2022-09-27T07:38:04;7.47;;;2.25;;
42098;SDS011;27758;55.900;8.516;2022-09-27T07:40:35;5.45;;;1.80;;
42098;SDS011;27758;55.900;8.516;2022-09-27T07:43:02;5.40;;;1.90;;
42098;SDS011;27758;55.900;8.516;2022-09-27T07:45:29;6.38;;;1.70;;
42098;SDS011;27758;55.900;8.516;2022-09-27T07:47:55;5.88;;;1.45;;
42098;SDS011;27758;55.900;8.516;2022-09-27T07:50:21;7.05;;;1.25;;
42098;SDS011;27758;55.900;8.516;2022-09-27T07:52:48;5.95;;;1.27;;
42098;SDS011;27758;55.900;8.516;2022-09-27T07:55:15;8.45;;;1.75;;
42098;SDS011;27758;55.900;8.516;2022-09-27T07:57:42;7.57;;;1.23;;
42098;SDS011;27758;55.900;8.516;2022-09-27T08:00:12;7.73;;;1.47;;
42098;SDS011;27758;55.900;8.516;2022-09-27T08:02:40;5.57;;;1.40;;
42098;SDS011;27758;55.900;8.516;2022-09-27T08:05:06;6.30;;;1.25;;
42098;SDS011;27758;55.900;8.516;2022-09-27T08:07:32;8.43;;;1.45;;
42098;SDS011;27758;55.900;8.516;2022-09-27T08:09:58;7.15;;;1.48;;
42098;SDS011;27758;55.900;8.516;2022-09-27T08:12:24;4.32;;;1.55;;
42098;SDS011;27758;55.900;8.516;2022-09-27T08:14:50;9.10;;;1.27;;
42098;SDS011;27758;55.900;8.516;2022-09-27T08:17:17;7.90;;;1.30;;
42098;SDS011;27758;55.900;8.516;2022-09-27T08:19:43;4.57;;;0.88;;
42098;SDS011;27758;55.900;8.516;2022-09-27T08:22:10;6.22;;;1.20;;
42098;SDS011;27758;55.900;8.516;2022-09-27T08:24:40;9.10;;;1.25;;
42098;SDS011;27758;55.900;8.516;2022-09-27T08:27:06;7.18;;;1.38;;
42098;SDS011;27758;55.900;8.516;2022-09-27T08:29:35;9.38;;;1.35;;
42098;SDS011;27758;55.900;8.516;2022-09-27T08:32:01;7.13;;;1.77;;
42098;SDS011;27758;55.900;8.516;2022-09-27T08:34:26;7.22;;;2.33;;
42098;SDS011;27758;55.900;8.516;2022-09-27T08:36:53;11.55;;;1.48;;
42098;SDS011;27758;55.900;8.516;2022-09-27T08:39:20;6.63;;;1.30;;
42098;SDS011;27758;55.900;8.516;2022-09-27T08:41:53;8.27;;;1.73;;
42098;SDS011;27758;55.900;8.516;2022-09-27T08:44:42;9.35;;;1.40;;
42098;SDS011;27758;55.900;8.516;2022-09-27T08:52:46;14.38;;;1.40;;
42098;SDS011;27758;55.900;8.516;2022-09-27T08:55:37;5.85;;;1.10;;
42098;SDS011;27758;55.900;8.516;2022-09-27T08:58:14;6.15;;;1.40;;
42098;SDS011;27758;55.900;8.516;2022-09-27T09:00:55;4.90;;;1.88;;
42098;SDS011;27758;55.900;8.516;2022-09-27T09:03:24;4.53;;;1.35;;
42098;SDS011;27758;55.900;8.516;2022-09-27T09:11:55;9.30;;;1.55;;
42098;SDS011;27758;55.900;8.516;2022-09-27T09:15:13;7.30;;;1.58;;
42098;SDS011;27758;55.900;8.516;2022-09-27T09:34:07;5.50;;;1.30;;
42098;SDS011;27758;55.900;8.516;2022-09-27T09:37:03;6.82;;;2.15;;
42098;SDS011;27758;55.900;8.516;2022-09-27T09:40:06;9.10;;;1.92;;
42098;SDS011;27758;55.900;8.516;2022-09-27T09:42:45;3.90;;;1.27;;
42098;SDS011;27758;55.900;8.516;2022-09-27T09:45:23;8.95;;;2.05;;
42098;SDS011;27758;55.900;8.516;2022-09-27T09:48:23;5.28;;;1.70;;
42098;SDS011;27758;55.900;8.516;2022-09-27T09:51:27;6.40;;;1.70;;
42098;SDS011;27758;55.900;8.516;2022-09-27T09:54:07;9.82;;;1.90;;
42098;SDS011;27758;55.900;8.516;2022-09-27T09:56:47;5.32;;;1.08;;
42098;SDS011;27758;55.900;8.516;2022-09-27T09:59:54;4.57;;;1.35;;
42098;SDS011;27758;55.900;8.516;2022-09-27T10:05:02;5.60;;;1.40;;
42098;SDS011;27758;55.900;8.516;2022-09-27T10:07:30;4.03;;;1.00;;
42098;SDS011;27758;55.900;8.516;2022-09-27T10:09:58;5.88;;;1.10;;
42098;SDS011;27758;55.900;8.516;2022-09-27T10:12:26;5.65;;;1.30;;
42098;SDS011;27758;55.900;8.516;2022-09-27T10:14:53;5.32;;;0.88;;
42098;SDS011;27758;55.900;8.516;2022-09-27T10:17:23;7.88;;;1.60;;
42098;SDS011;27758;55.900;8.516;2022-09-27T10:19:52;6.95;;;1.20;;
42098;SDS011;27758;55.900;8.516;2022-09-27T10:24:54;9.20;;;1.45;;
42098;SDS011;27758;55.900;8.516;2022-09-27T10:27:21;9.60;;;1.70;;
42098;SDS011;27758;55.900;8.516;2022-09-27T10:29:54;5.70;;;1.40;;
42098;SDS011;27758;55.900;8.516;2022-09-27T10:32:23;7.85;;;1.50;;
42098;SDS011;27758;55.900;8.516;2022-09-27T10:34:52;5.50;;;0.95;;
42098;SDS011;27758;55.900;8.516;2022-09-27T10:37:19;4.53;;;1.58;;
42098;SDS011;27758;55.900;8.516;2022-09-27T10:39:47;6.32;;;1.02;;
42098;SDS011;27758;55.900;8.516;2022-09-27T10:42:19;7.38;;;1.48;;
42098;SDS011;27758;55.900;8.516;2022-09-27T10:44:45;9.10;;;1.75;;
42098;SDS011;27758;55.900;8.516;2022-09-27T10:47:12;5.65;;;0.93;;
42098;SDS011;27758;55.900;8.516;2022-09-27T10:49:47;6.35;;;1.40;;
42098;SDS011;27758;55.900;8.516;2022-09-27T10:52:20;7.60;;;1.75;;
42098;SDS011;27758;55.900;8.516;2022-09-27T10:54:55;7.40;;;1.02;;
42098;SDS011;27758;55.900;8.516;2022-09-27T10:57:29;6.38;;;0.88;;
42098;SDS011;27758;55.900;8.516;2022-09-27T10:59:57;10.90;;;1.92;;
42098;SDS011;27758;55.900;8.516;2022-09-27T11:02:28;7.45;;;1.33;;
42098;SDS011;27758;55.900;8.516;2022-09-27T11:05:15;4.90;;;1.30;;
42098;SDS011;27758;55.900;8.516;2022-09-27T11:07:59;7.88;;;1.60;;
42098;SDS011;27758;55.900;8.516;2022-09-27T11:10:44;5.97;;;1.10;;
42098;SDS011;27758;55.900;8.516;2022-09-27T11:13:24;4.13;;;1.08;;
42098;SDS011;27758;55.900;8.516;2022-09-27T11:18:54;5.18;;;1.70;;
42098;SDS011;27758;55.900;8.516;2022-09-27T11:21:45;9.95;;;1.13;;
42098;SDS011;27758;55.900;8.516;2022-09-27T11:24:42;5.70;;;1.15;;
42098;SDS011;27758;55.900;8.516;2022-09-27T11:27:41;5.05;;;1.08;;
42098;SDS011;27758;55.900;8.516;2022-09-27T11:30:17;7.75;;;1.73;;
42098;SDS011;27758;55.900;8.516;2022-09-27T11:46:32;14.98;;;2.03;;
42098;SDS011;27758;55.900;8.516;2022-09-27T11:54:41;6.25;;;1.40;;
42098;SDS011;27758;55.900;8.516;2022-09-27T11:57:32;5.90;;;1.60;;
42098;SDS011;27758;55.900;8.516;2022-09-27T12:07:41;5.72;;;1.88;;
42098;SDS011;27758;55.900;8.516;2022-09-27T12:10:16;4.28;;;1.30;;
42098;SDS011;27758;55.900;8.516;2022-09-27T12:12:44;8.13;;;1.60;;
42098;SDS011;27758;55.900;8.516;2022-09-27T12:15:17;6.80;;;1.52;;
42098;SDS011;27758;55.900;8.516;2022-09-27T12:17:47;3.03;;;0.80;;
42098;SDS011;27758;55.900;8.516;2022-09-27T12:23:14;8.77;;;1.35;;
42098;SDS011;27758;55.900;8.516;2022-09-27T12:25:44;9.77;;;2.28;;
42098;SDS011;27758;55.900;8.516;2022-09-27T12:28:21;7.28;;;2.03;;
42098;SDS011;27758;55.900;8.516;2022-09-27T12:36:31;6.53;;;1.73;;
42098;SDS011;27758;55.900;8.516;2022-09-27T12:39:01;9.35;;;2.70;;
42098;SDS011;27758;55.900;8.516;2022-09-27T12:41:37;7.85;;;2.33;;
42098;SDS011;27758;55.900;8.516;2022-09-27T12:44:08;11.45;;;2.75;;
42098;SDS011;27758;55.900;8.516;2022-09-27T12:49:45;6.82;;;2.20;;
42098;SDS011;27758;55.900;8.516;2022-09-27T12:52:18;9.15;;;1.70;;
42098;SDS011;27758;55.900;8.516;2022-09-27T13:00:22;4.43;;;1.13;;
42098;SDS011;27758;55.900;8.516;2022-09-27T13:08:38;3.35;;;0.95;;
42098;SDS011;27758;55.900;8.516;2022-09-27T13:14:00;6.75;;;1.05;;
42098;SDS011;27758;55.900;8.516;2022-09-27T13:16:28;3.53;;;0.82;;
42098;SDS011;27758;55.900;8.516;2022-09-27T13:18:57;3.88;;;1.00;;
42098;SDS011;27758;55.900;8.516;2022-09-27T13:29:52;3.40;;;0.80;;
42098;SDS011;27758;55.900;8.516;2022-09-27T13:32:40;5.78;;;1.20;;
42098;SDS011;27758;55.900;8.516;2022-09-27T13:35:34;3.65;;;0.98;;
42098;SDS011;27758;55.900;8.516;2022-09-27T13:38:01;2.13;;;0.50;;
42098;SDS011;27758;55.900;8.516;2022-09-27T13:40:47;3.33;;;0.70;;
42098;SDS011;27758;55.900;8.516;2022-09-27T13:43:20;6.18;;;1.20;;
42098;SDS011;27758;55.900;8.516;2022-09-27T13:46:05;7.13;;;0.82;;
42098;SDS011;27758;55.900;8.516;2022-09-27T13:48:44;2.05;;;0.65;;
42098;SDS011;27758;55.900;8.516;2022-09-27T13:54:04;5.63;;;1.25;;
42098;SDS011;27758;55.900;8.516;2022-09-27T13:59:08;3.30;;;0.57;;
42098;SDS011;27758;55.900;8.516;2022-09-27T14:01:40;3.03;;;0.70;;
42098;SDS011;27758;55.900;8.516;2022-09-27T14:04:16;3.63;;;0.85;;
42098;SDS011;27758;55.900;8.516;2022-09-27T14:06:49;4.40;;;0.80;;
42098;SDS011;27758;55.900;8.516;2022-09-27T14:09:25;3.38;;;0.60;;
42098;SDS011;27758;55.900;8.516;2022-09-27T14:11:58;4.72;;;0.90;;
42098;SDS011;27758;55.900;8.516;2022-09-27T14:14:27;3.03;;;1.17;;
42098;SDS011;27758;55.900;8.516;2022-09-27T14:16:57;4.55;;;1.08;;
42098;SDS011;27758;55.900;8.516;2022-09-27T14:19:24;4.28;;;1.00;;
42098;SDS011;27758;55.900;8.516;2022-09-27T14:21:51;3.25;;;0.90;;
42098;SDS011;27758;55.900;8.516;2022-09-27T14:27:02;6.90;;;2.97;;
42098;SDS011;27758;55.900;8.516;2022-09-27T14:29:39;7.75;;;1.08;;
42098;SDS011;27758;55.900;8.516;2022-09-27T14:32:12;2.63;;;1.27;;
42098;SDS011;27758;55.900;8.516;2022-09-27T14:34:42;3.58;;;1.42;;
42098;SDS011;27758;55.900;8.516;2022-09-27T14:37:19;7.45;;;1.77;;
42098;SDS011;27758;55.900;8.516;2022-09-27T14:42:19;3.85;;;0.93;;
42098;SDS011;27758;55.900;8.516;2022-09-27T14:44:47;2.95;;;1.13;;
42098;SDS011;27758;55.900;8.516;2022-09-27T14:47:17;5.00;;;0.98;;
42098;SDS011;27758;55.900;8.516;2022-09-27T14:49:47;2.95;;;0.50;;
42098;SDS011;27758;55.900;8.516;2022-09-27T14:52:15;3.27;;;0.80;;
42098;SDS011;27758;55.900;8.516;2022-09-27T14:54:43;4.22;;;0.70;;
42098;SDS011;27758;55.900;8.516;2022-09-27T14:57:12;3.38;;;0.70;;
42098;SDS011;27758;55.900;8.516;2022-09-27T14:59:41;2.90;;;0.57;;
42098;SDS011;27758;55.900;8.516;2022-09-27T15:02:15;4.90;;;1.20;;
42098;SDS011;27758;55.900;8.516;2022-09-27T15:04:45;2.75;;;0.80;;
42098;SDS011;27758;55.900;8.516;2022-09-27T15:07:13;4.65;;;0.82;;
42098;SDS011;27758;55.900;8.516;2022-09-27T15:09:41;3.47;;;0.68;;
42098;SDS011;27758;55.900;8.516;2022-09-27T15:12:09;1.92;;;0.60;;
42098;SDS011;27758;55.900;8.516;2022-09-27T15:14:40;4.47;;;0.90;;
42098;SDS011;27758;55.900;8.516;2022-09-27T15:17:18;3.07;;;0.80;;
42098;SDS011;27758;55.900;8.516;2022-09-27T15:19:56;5.07;;;0.73;;
42098;SDS011;27758;55.900;8.516;2022-09-27T15:22:42;4.72;;;0.80;;
42098;SDS011;27758;55.900;8.516;2022-09-27T15:27:46;4.60;;;1.05;;
42098;SDS011;27758;55.900;8.516;2022-09-27T15:30:18;5.75;;;2.53;;
42098;SDS011;27758;55.900;8.516;2022-09-27T15:32:49;7.35;;;3.20;;
42098;SDS011;27758;55.900;8.516;2022-09-27T15:35:23;4.85;;;1.40;;
42098;SDS011;27758;55.900;8.516;2022-09-27T15:37:51;5.95;;;1.10;;
42098;SDS011;27758;55.900;8.516;2022-09-27T15:46:03;4.53;;;1.13;;
42098;SDS011;27758;55.900;8.516;2022-09-27T15:51:58;4.18;;;1.00;;
42098;SDS011;27758;55.900;8.516;2022-09-27T15:54:26;7.00;;;1.63;;
42098;SDS011;27758;55.900;8.516;2022-09-27T15:56:59;4.88;;;1.60;;
42098;SDS011;27758;55.900;8.516;2022-09-27T15:59:29;3.10;;;1.52;;
42098;SDS011;27758;55.900;8.516;2022-09-27T16:01:59;5.30;;;1.75;;
42098;SDS011;27758;55.900;8.516;2022-09-27T16:04:27;8.75;;;1.75;;
42098;SDS011;27758;55.900;8.516;2022-09-27T16:06:56;6.18;;;1.48;;
42098;SDS011;27758;55.900;8.516;2022-09-27T16:09:25;3.65;;;1.50;;
42098;SDS011;27758;55.900;8.516;2022-09-27T16:11:51;4.22;;;1.23;;
42098;SDS011;27758;55.900;8.516;2022-09-27T16:14:17;6.30;;;1.30;;
42098;SDS011;27758;55.900;8.516;2022-09-27T16:16:48;3.97;;;1.05;;
42098;SDS011;27758;55.900;8.516;2022-09-27T16:19:18;3.85;;;2.17;;
42098;SDS011;27758;55.900;8.516;2022-09-27T16:21:44;5.05;;;1.83;;
42098;SDS011;27758;55.900;8.516;2022-09-27T16:24:12;3.00;;;1.50;;
42098;SDS011;27758;55.900;8.516;2022-09-27T16:26:39;8.02;;;1.52;;
42098;SDS011;27758;55.900;8.516;2022-09-27T16:29:08;4.57;;;1.58;;
42098;SDS011;27758;55.900;8.516;2022-09-27T16:31:35;3.25;;;1.85;;
42098;SDS011;27758;55.900;8.516;2022-09-27T16:34:01;2.95;;;1.98;;
42098;SDS011;27758;55.900;8.516;2022-09-27T16:36:26;5.70;;;2.97;;
42098;SDS011;27758;55.900;8.516;2022-09-27T16:38:52;4.45;;;2.25;;
42098;SDS011;27758;55.900;8.516;2022-09-27T16:41:19;5.35;;;2.78;;
42098;SDS011;27758;55.900;8.516;2022-09-27T16:43:46;8.32;;;2.33;;
42098;SDS011;27758;55.900;8.516;2022-09-27T16:46:12;5.95;;;2.67;;
42098;SDS011;27758;55.900;8.516;2022-09-27T16:48:42;5.20;;;1.83;;
42098;SDS011;27758;55.900;8.516;2022-09-27T16:51:13;3.35;;;0.93;;
42098;SDS011;27758;55.900;8.516;2022-09-27T16:54:03;6.95;;;1.13;;
42098;SDS011;27758;55.900;8.516;2022-09-27T16:56:30;3.67;;;1.77;;
42098;SDS011;27758;55.900;8.516;2022-09-27T16:58:57;4.30;;;2.22;;
42098;SDS011;27758;55.900;8.516;2022-09-27T17:01:25;5.10;;;2.70;;
42098;SDS011;27758;55.900;8.516;2022-09-27T17:03:53;7.22;;;3.17;;
42098;SDS011;27758;55.900;8.516;2022-09-27T17:06:19;5.63;;;2.60;;
42098;SDS011;27758;55.900;8.516;2022-09-27T17:08:45;7.88;;;2.45;;
42098;SDS011;27758;55.900;8.516;2022-09-27T17:11:14;4.75;;;2.33;;
42098;SDS011;27758;55.900;8.516;2022-09-27T17:13:42;5.82;;;2.15;;
42098;SDS011;27758;55.900;8.516;2022-09-27T17:16:09;4.13;;;1.67;;
42098;SDS011;27758;55.900;8.516;2022-09-27T17:18:37;6.40;;;1.60;;
42098;SDS011;27758;55.900;8.516;2022-09-27T17:21:03;4.97;;;1.83;;
42098;SDS011;27758;55.900;8.516;2022-09-27T17:23:30;4.28;;;1.98;;
42098;SDS011;27758;55.900;8.516;2022-09-27T17:26:04;4.40;;;1.92;;
42098;SDS011;27758;55.900;8.516;2022-09-27T17:28:34;4.80;;;1.60;;
42098;SDS011;27758;55.900;8.516;2022-09-27T17:31:22;8.15;;;2.17;;
42098;SDS011;27758;55.900;8.516;2022-09-27T17:33:48;7.15;;;2.40;;
42098;SDS011;27758;55.900;8.516;2022-09-27T17:36:18;12.90;;;3.75;;
42098;SDS011;27758;55.900;8.516;2022-09-27T17:38:48;11.75;;;4.50;;
42098;SDS011;27758;55.900;8.516;2022-09-27T17:41:19;9.88;;;4.35;;
42098;SDS011;27758;55.900;8.516;2022-09-27T17:43:50;7.18;;;3.50;;
42098;SDS011;27758;55.900;8.516;2022-09-27T17:46:22;7.10;;;3.60;;
42098;SDS011;27758;55.900;8.516;2022-09-27T17:48:52;8.52;;;4.20;;